sensor_id;sensor_type;location;lat;lon;timestamp;temperature;humidity
18577;DHT22;9418;52.694;13.294;2023-11-21T00:00:21;6.70;99.90
18577;DHT22;9418;52.694;13.294;2023-11-21T00:02:47;6.70;99.90
18577;DHT22;9418;52.694;13.294;2023-11-21T00:05:15;6.70;99.90
18577;DHT22;9418;52.694;13.294;2023-11-21T00:07:41;6.60;99.90
18577;DHT22;9418;52.694;13.294;2023-11-21T00:10:11;6.60;99.90
18577;DHT22;9418;52.694;13.294;2023-11-21T00:12:39;6.50;99.90
18577;DHT22;9418;52.694;13.294;2023-11-21T00:15:08;6.50;99.90
18577;DHT22;9418;52.694;13.294;2023-11-21T00:17:36;6.50;99.90
18577;DHT22;9418;52.694;13.294;2023-11-21T00:20:03;6.50;99.90
18577;DHT22;9418;52.694;13.294;2023-11-21T00:22:31;6.50;99.90
18577;DHT22;9418;52.694;13.294;2023-11-21T00:24:58;6.40;99.90
18577;DHT22;9418;52.694;13.294;2023-11-21T00:27:26;6.40;99.90
18577;DHT22;9418;52.694;13.294;2023-11-21T00:29:53;6.40;99.90
18577;DHT22;9418;52.694;13.294;2023-11-21T00:32:19;6.40;99.90
18577;DHT22;9418;52.694;13.294;2023-11-21T00:34:46;6.40;99.90
18577;DHT22;9418;52.694;13.294;2023-11-21T00:37:12;6.30;99.90
18577;DHT22;9418;52.694;13.294;2023-11-21T00:39:39;6.30;99.90
18577;DHT22;9418;52.694;13.294;2023-11-21T00:42:06;6.30;99.90
18577;DHT22;9418;52.694;13.294;2023-11-21T00:44:37;6.30;99.90
18577;DHT22;9418;52.694;13.294;2023-11-21T00:47:04;6.30;99.90
18577;DHT22;9418;52.694;13.294;2023-11-21T00:49:30;6.30;99.90
18577;DHT22;9418;52.694;13.294;2023-11-21T00:51:57;6.30;99.90
18577;DHT22;9418;52.694;13.294;2023-11-21T00:54:24;6.20;99.90
18577;DHT22;9418;52.694;13.294;2023-11-21T00:56:50;6.20;99.90
18577;DHT22;9418;52.694;13.294;2023-11-21T00:59:17;6.10;99.90
18577;DHT22;9418;52.694;13.294;2023-11-21T01:01:45;6.10;99.90
18577;DHT22;9418;52.694;13.294;2023-11-21T01:04:11;6.10;99.90
18577;DHT22;9418;52.694;13.294;2023-11-21T01:06:38;6.10;99.90
18577;DHT22;9418;52.694;13.294;2023-11-21T01:09:05;6.10;99.90
18577;DHT22;9418;52.694;13.294;2023-11-21T01:11:34;6.10;99.90
18577;DHT22;9418;52.694;13.294;2023-11-21T01:14:02;6.10;99.90
18577;DHT22;9418;52.694;13.294;2023-11-21T01:16:29;6.00;99.90
18577;DHT22;9418;52.694;13.294;2023-11-21T01:18:59;6.00;99.90
18577;DHT22;9418;52.694;13.294;2023-11-21T01:21:26;5.90;99.90
18577;DHT22;9418;52.694;13.294;2023-11-21T01:23:53;5.90;99.90
18577;DHT22;9418;52.694;13.294;2023-11-21T01:26:20;5.90;99.90
18577;DHT22;9418;52.694;13.294;2023-11-21T01:28:46;5.80;99.90
18577;DHT22;9418;52.694;13.294;2023-11-21T01:31:14;5.90;99.90
18577;DHT22;9418;52.694;13.294;2023-11-21T01:33:40;5.90;99.90
18577;DHT22;9418;52.694;13.294;2023-11-21T01:36:09;5.80;99.90
18577;DHT22;9418;52.694;13.294;2023-11-21T01:38:36;5.80;99.90
18577;DHT22;9418;52.694;13.294;2023-11-21T01:41:03;5.80;99.90
18577;DHT22;9418;52.694;13.294;2023-11-21T01:43:30;5.90;99.90
18577;DHT22;9418;52.694;13.294;2023-11-21T01:45:57;5.80;99.90
18577;DHT22;9418;52.694;13.294;2023-11-21T01:48:24;5.80;99.90
18577;DHT22;9418;52.694;13.294;2023-11-21T01:50:51;5.80;99.90
18577;DHT22;9418;52.694;13.294;2023-11-21T01:53:19;5.80;99.90
18577;DHT22;9418;52.694;13.294;2023-11-21T01:55:46;5.80;99.90
18577;DHT22;9418;52.694;13.294;2023-11-21T01:58:13;5.80;99.90
18577;DHT22;9418;52.694;13.294;2023-11-21T02:00:39;5.80;99.90
18577;DHT22;9418;52.694;13.294;2023-11-21T02:03:06;5.90;99.90
18577;DHT22;9418;52.694;13.294;2023-11-21T02:05:33;5.80;99.90
18577;DHT22;9418;52.694;13.294;2023-11-21T02:08:00;5.80;99.90
18577;DHT22;9418;52.694;13.294;2023-11-21T02:10:29;5.80;99.90
18577;DHT22;9418;52.694;13.294;2023-11-21T02:12:56;5.80;99.90
18577;DHT22;9418;52.694;13.294;2023-11-21T02:15:24;5.80;99.90
18577;DHT22;9418;52.694;13.294;2023-11-21T02:17:54;5.80;99.90
18577;DHT22;9418;52.694;13.294;2023-11-21T02:20:23;5.70;99.90
18577;DHT22;9418;52.694;13.294;2023-11-21T02:22:53;5.70;99.90
18577;DHT22;9418;52.694;13.294;2023-11-21T02:25:23;5.70;99.90
18577;DHT22;9418;52.694;13.294;2023-11-21T02:27:49;5.70;99.90
18577;DHT22;9418;52.694;13.294;2023-11-21T02:30:16;5.70;99.90
18577;DHT22;9418;52.694;13.294;2023-11-21T02:32:44;5.70;99.90
18577;DHT22;9418;52.694;13.294;2023-11-21T02:35:11;5.70;99.90
18577;DHT22;9418;52.694;13.294;2023-11-21T02:37:38;5.60;99.90
18577;DHT22;9418;52.694;13.294;2023-11-21T02:40:09;5.60;99.90
18577;DHT22;9418;52.694;13.294;2023-11-21T02:42:37;5.60;99.90
18577;DHT22;9418;52.694;13.294;2023-11-21T02:45:05;5.70;99.90
18577;DHT22;9418;52.694;13.294;2023-11-21T02:47:32;5.70;99.90
18577;DHT22;9418;52.694;13.294;2023-11-21T02:49:59;5.70;99.90
18577;DHT22;9418;52.694;13.294;2023-11-21T02:52:26;5.70;99.90
18577;DHT22;9418;52.694;13.294;2023-11-21T02:54:52;5.70;99.90
18577;DHT22;9418;52.694;13.294;2023-11-21T02:57:20;5.70;99.90
18577;DHT22;9418;52.694;13.294;2023-11-21T02:59:47;5.70;99.90
18577;DHT22;9418;52.694;13.294;2023-11-21T03:02:13;5.60;99.90
18577;DHT22;9418;52.694;13.294;2023-11-21T03:04:41;5.70;99.90
18577;DHT22;9418;52.694;13.294;2023-11-21T03:07:08;5.70;99.90
18577;DHT22;9418;52.694;13.294;2023-11-21T03:09:35;5.60;99.90
18577;DHT22;9418;52.694;13.294;2023-11-21T03:12:02;5.60;99.90
18577;DHT22;9418;52.694;13.294;2023-11-21T03:14:29;5.60;99.90
18577;DHT22;9418;52.694;13.294;2023-11-21T03:16:56;5.60;99.90
18577;DHT22;9418;52.694;13.294;2023-11-21T03:19:22;5.60;99.90
18577;DHT22;9418;52.694;13.294;2023-11-21T03:21:49;5.50;99.90
18577;DHT22;9418;52.694;13.294;2023-11-21T03:24:18;5.50;99.90
18577;DHT22;9418;52.694;13.294;2023-11-21T03:26:45;5.50;99.90
18577;DHT22;9418;52.694;13.294;2023-11-21T03:29:12;5.50;99.90
18577;DHT22;9418;52.694;13.294;2023-11-21T03:31:41;5.50;99.90
18577;DHT22;9418;52.694;13.294;2023-11-21T03:34:15;5.50;99.90
18577;DHT22;9418;52.694;13.294;2023-11-21T03:36:42;5.50;87.50
18577;DHT22;9418;52.694;13.294;2023-11-21T03:39:09;5.50;95.20
18577;DHT22;9418;52.694;13.294;2023-11-21T03:41:36;5.50;92.20
18577;DHT22;9418;52.694;13.294;2023-11-21T03:44:02;5.40;78.70
18577;DHT22;9418;52.694;13.294;2023-11-21T03:46:29;5.40;81.70
18577;DHT22;9418;52.694;13.294;2023-11-21T03:48:57;5.40;23.30
18577;DHT22;9418;52.694;13.294;2023-11-21T03:51:23;5.40;24.50
18577;DHT22;9418;52.694;13.294;2023-11-21T03:53:50;5.30;25.40
18577;DHT22;9418;52.694;13.294;2023-11-21T03:56:17;5.30;27.20
18577;DHT22;9418;52.694;13.294;2023-11-21T03:58:43;5.30;29.10
18577;DHT22;9418;52.694;13.294;2023-11-21T04:01:10;5.30;28.80
18577;DHT22;9418;52.694;13.294;2023-11-21T04:03:36;5.30;29.80
18577;DHT22;9418;52.694;13.294;2023-11-21T04:06:05;5.30;30.10
18577;DHT22;9418;52.694;13.294;2023-11-21T04:08:32;5.40;30.70
18577;DHT22;9418;52.694;13.294;2023-11-21T04:10:59;5.40;29.90
18577;DHT22;9418;52.694;13.294;2023-11-21T04:13:26;5.40;30.10
18577;DHT22;9418;52.694;13.294;2023-11-21T04:15:53;5.40;31.00
18577;DHT22;9418;52.694;13.294;2023-11-21T04:18:19;5.40;29.00
18577;DHT22;9418;52.694;13.294;2023-11-21T04:20:46;5.40;28.80
18577;DHT22;9418;52.694;13.294;2023-11-21T04:23:14;5.30;34.70
18577;DHT22;9418;52.694;13.294;2023-11-21T04:25:40;5.30;32.80
18577;DHT22;9418;52.694;13.294;2023-11-21T04:28:07;5.30;32.30
18577;DHT22;9418;52.694;13.294;2023-11-21T04:30:33;5.30;34.90
18577;DHT22;9418;52.694;13.294;2023-11-21T04:33:00;5.30;38.50
18577;DHT22;9418;52.694;13.294;2023-11-21T04:35:28;5.30;37.30
18577;DHT22;9418;52.694;13.294;2023-11-21T04:37:54;5.20;41.40
18577;DHT22;9418;52.694;13.294;2023-11-21T04:40:23;5.30;39.00
18577;DHT22;9418;52.694;13.294;2023-11-21T04:42:52;5.20;41.70
18577;DHT22;9418;52.694;13.294;2023-11-21T04:45:19;5.20;40.20
18577;DHT22;9418;52.694;13.294;2023-11-21T04:47:45;5.20;39.10
18577;DHT22;9418;52.694;13.294;2023-11-21T04:50:12;5.20;41.60
18577;DHT22;9418;52.694;13.294;2023-11-21T04:52:38;5.20;42.10
18577;DHT22;9418;52.694;13.294;2023-11-21T04:55:05;5.10;48.00
18577;DHT22;9418;52.694;13.294;2023-11-21T04:57:36;5.10;44.90
18577;DHT22;9418;52.694;13.294;2023-11-21T05:00:04;5.10;45.90
18577;DHT22;9418;52.694;13.294;2023-11-21T05:02:31;5.00;48.10
18577;DHT22;9418;52.694;13.294;2023-11-21T05:04:59;4.90;56.10
18577;DHT22;9418;52.694;13.294;2023-11-21T05:07:26;5.00;46.90
18577;DHT22;9418;52.694;13.294;2023-11-21T05:09:54;5.00;43.90
18577;DHT22;9418;52.694;13.294;2023-11-21T05:12:21;5.00;49.70
18577;DHT22;9418;52.694;13.294;2023-11-21T05:14:50;5.00;47.10
18577;DHT22;9418;52.694;13.294;2023-11-21T05:17:17;5.00;45.40
18577;DHT22;9418;52.694;13.294;2023-11-21T05:19:43;5.00;47.70
18577;DHT22;9418;52.694;13.294;2023-11-21T05:22:11;4.90;50.20
18577;DHT22;9418;52.694;13.294;2023-11-21T05:24:38;4.90;49.60
18577;DHT22;9418;52.694;13.294;2023-11-21T05:27:05;4.90;50.90
18577;DHT22;9418;52.694;13.294;2023-11-21T05:29:32;4.90;48.30
18577;DHT22;9418;52.694;13.294;2023-11-21T05:32:00;4.90;45.00
18577;DHT22;9418;52.694;13.294;2023-11-21T05:34:26;5.00;43.80
18577;DHT22;9418;52.694;13.294;2023-11-21T05:36:53;5.00;43.70
18577;DHT22;9418;52.694;13.294;2023-11-21T05:39:19;4.90;45.00
18577;DHT22;9418;52.694;13.294;2023-11-21T05:41:47;4.90;44.60
18577;DHT22;9418;52.694;13.294;2023-11-21T05:44:14;5.00;42.60
18577;DHT22;9418;52.694;13.294;2023-11-21T05:46:41;4.90;48.10
18577;DHT22;9418;52.694;13.294;2023-11-21T05:49:09;4.90;48.00
18577;DHT22;9418;52.694;13.294;2023-11-21T05:51:36;4.90;48.80
18577;DHT22;9418;52.694;13.294;2023-11-21T05:54:04;4.80;49.70
18577;DHT22;9418;52.694;13.294;2023-11-21T05:56:30;4.70;62.20
18577;DHT22;9418;52.694;13.294;2023-11-21T05:58:57;4.80;58.60
18577;DHT22;9418;52.694;13.294;2023-11-21T06:01:23;4.70;71.70
18577;DHT22;9418;52.694;13.294;2023-11-21T06:03:50;4.70;68.20
18577;DHT22;9418;52.694;13.294;2023-11-21T06:06:18;4.70;66.60
18577;DHT22;9418;52.694;13.294;2023-11-21T06:08:44;4.70;69.90
18577;DHT22;9418;52.694;13.294;2023-11-21T06:11:11;4.60;72.30
18577;DHT22;9418;52.694;13.294;2023-11-21T06:13:38;4.60;85.30
18577;DHT22;9418;52.694;13.294;2023-11-21T06:16:05;4.60;74.80
18577;DHT22;9418;52.694;13.294;2023-11-21T06:18:32;4.60;75.30
18577;DHT22;9418;52.694;13.294;2023-11-21T06:20:58;4.60;80.30
18577;DHT22;9418;52.694;13.294;2023-11-21T06:23:27;4.60;78.10
18577;DHT22;9418;52.694;13.294;2023-11-21T06:25:53;4.50;87.50
18577;DHT22;9418;52.694;13.294;2023-11-21T06:28:20;4.60;94.70
18577;DHT22;9418;52.694;13.294;2023-11-21T06:30:46;4.60;95.10
18577;DHT22;9418;52.694;13.294;2023-11-21T06:33:14;4.50;96.10
18577;DHT22;9418;52.694;13.294;2023-11-21T06:35:41;4.50;94.30
18577;DHT22;9418;52.694;13.294;2023-11-21T06:38:08;4.50;94.50
18577;DHT22;9418;52.694;13.294;2023-11-21T06:40:36;4.50;90.40
18577;DHT22;9418;52.694;13.294;2023-11-21T06:43:02;4.50;93.40
18577;DHT22;9418;52.694;13.294;2023-11-21T06:45:30;4.50;99.90
18577;DHT22;9418;52.694;13.294;2023-11-21T06:47:56;4.50;99.90
18577;DHT22;9418;52.694;13.294;2023-11-21T06:50:23;4.50;99.90
18577;DHT22;9418;52.694;13.294;2023-11-21T06:52:50;4.50;99.90
18577;DHT22;9418;52.694;13.294;2023-11-21T06:55:16;4.50;99.90
18577;DHT22;9418;52.694;13.294;2023-11-21T06:57:44;4.50;99.90
18577;DHT22;9418;52.694;13.294;2023-11-21T07:00:13;4.50;99.90
18577;DHT22;9418;52.694;13.294;2023-11-21T07:02:42;4.50;99.90
18577;DHT22;9418;52.694;13.294;2023-11-21T07:05:09;4.60;97.90
18577;DHT22;9418;52.694;13.294;2023-11-21T07:07:36;4.60;96.30
18577;DHT22;9418;52.694;13.294;2023-11-21T07:10:04;4.60;96.80
18577;DHT22;9418;52.694;13.294;2023-11-21T07:12:31;4.50;99.90
18577;DHT22;9418;52.694;13.294;2023-11-21T07:14:59;4.60;96.20
18577;DHT22;9418;52.694;13.294;2023-11-21T07:17:26;4.50;99.90
18577;DHT22;9418;52.694;13.294;2023-11-21T07:19:53;4.50;98.90
18577;DHT22;9418;52.694;13.294;2023-11-21T07:22:20;4.60;97.20
18577;DHT22;9418;52.694;13.294;2023-11-21T07:24:48;4.60;98.40
18577;DHT22;9418;52.694;13.294;2023-11-21T07:27:15;4.60;96.70
18577;DHT22;9418;52.694;13.294;2023-11-21T07:29:41;4.60;96.50
18577;DHT22;9418;52.694;13.294;2023-11-21T07:32:09;4.60;99.90
18577;DHT22;9418;52.694;13.294;2023-11-21T07:34:36;4.60;99.90
18577;DHT22;9418;52.694;13.294;2023-11-21T07:37:02;4.60;99.90
18577;DHT22;9418;52.694;13.294;2023-11-21T07:39:29;4.70;96.20
18577;DHT22;9418;52.694;13.294;2023-11-21T07:41:56;4.70;95.90
18577;DHT22;9418;52.694;13.294;2023-11-21T07:44:23;4.70;96.80
18577;DHT22;9418;52.694;13.294;2023-11-21T07:46:50;4.70;96.60
18577;DHT22;9418;52.694;13.294;2023-11-21T07:49:17;4.70;99.60
18577;DHT22;9418;52.694;13.294;2023-11-21T07:51:46;4.70;94.90
18577;DHT22;9418;52.694;13.294;2023-11-21T07:54:13;4.70;95.40
18577;DHT22;9418;52.694;13.294;2023-11-21T07:56:39;4.80;96.30
18577;DHT22;9418;52.694;13.294;2023-11-21T07:59:06;4.70;98.20
18577;DHT22;9418;52.694;13.294;2023-11-21T08:01:32;4.70;96.00
18577;DHT22;9418;52.694;13.294;2023-11-21T08:03:59;4.80;95.90
18577;DHT22;9418;52.694;13.294;2023-11-21T08:06:30;4.80;93.00
18577;DHT22;9418;52.694;13.294;2023-11-21T08:08:57;4.80;92.90
18577;DHT22;9418;52.694;13.294;2023-11-21T08:11:23;4.90;94.50
18577;DHT22;9418;52.694;13.294;2023-11-21T08:13:51;4.90;99.90
18577;DHT22;9418;52.694;13.294;2023-11-21T08:16:18;4.90;98.90
18577;DHT22;9418;52.694;13.294;2023-11-21T08:18:45;4.90;99.90
18577;DHT22;9418;52.694;13.294;2023-11-21T08:21:12;4.80;99.90
18577;DHT22;9418;52.694;13.294;2023-11-21T08:23:40;4.70;99.90
18577;DHT22;9418;52.694;13.294;2023-11-21T08:26:07;4.80;99.90
18577;DHT22;9418;52.694;13.294;2023-11-21T08:28:34;4.80;99.90
18577;DHT22;9418;52.694;13.294;2023-11-21T08:31:01;4.80;99.90
18577;DHT22;9418;52.694;13.294;2023-11-21T08:33:27;4.80;99.90
18577;DHT22;9418;52.694;13.294;2023-11-21T08:35:54;4.80;99.90
18577;DHT22;9418;52.694;13.294;2023-11-21T08:38:20;4.80;99.90
18577;DHT22;9418;52.694;13.294;2023-11-21T08:40:49;4.80;99.90
18577;DHT22;9418;52.694;13.294;2023-11-21T08:43:15;4.70;99.90
18577;DHT22;9418;52.694;13.294;2023-11-21T08:45:45;4.70;99.90
18577;DHT22;9418;52.694;13.294;2023-11-21T08:48:12;4.70;99.90
18577;DHT22;9418;52.694;13.294;2023-11-21T08:50:38;4.80;99.90
18577;DHT22;9418;52.694;13.294;2023-11-21T08:53:05;4.80;99.90
18577;DHT22;9418;52.694;13.294;2023-11-21T08:55:32;4.80;99.90
18577;DHT22;9418;52.694;13.294;2023-11-21T08:58:04;4.80;99.90
18577;DHT22;9418;52.694;13.294;2023-11-21T09:00:32;4.70;99.90
18577;DHT22;9418;52.694;13.294;2023-11-21T09:02:58;4.70;99.90
18577;DHT22;9418;52.694;13.294;2023-11-21T09:05:25;4.70;99.80
18577;DHT22;9418;52.694;13.294;2023-11-21T09:07:52;4.70;99.20
18577;DHT22;9418;52.694;13.294;2023-11-21T09:10:18;4.60;99.90
18577;DHT22;9418;52.694;13.294;2023-11-21T09:12:46;4.60;97.90
18577;DHT22;9418;52.694;13.294;2023-11-21T09:15:14;4.50;98.40
18577;DHT22;9418;52.694;13.294;2023-11-21T09:17:40;4.50;94.00
18577;DHT22;9418;52.694;13.294;2023-11-21T09:20:08;4.50;97.10
18577;DHT22;9418;52.694;13.294;2023-11-21T09:22:35;4.50;89.10
18577;DHT22;9418;52.694;13.294;2023-11-21T09:25:02;4.50;86.20
18577;DHT22;9418;52.694;13.294;2023-11-21T09:27:30;4.50;85.00
18577;DHT22;9418;52.694;13.294;2023-11-21T09:29:57;4.50;81.70
18577;DHT22;9418;52.694;13.294;2023-11-21T09:32:25;4.50;83.30
18577;DHT22;9418;52.694;13.294;2023-11-21T09:34:52;4.50;81.80
18577;DHT22;9418;52.694;13.294;2023-11-21T09:37:20;4.50;83.10
18577;DHT22;9418;52.694;13.294;2023-11-21T09:39:47;4.60;78.10
18577;DHT22;9418;52.694;13.294;2023-11-21T09:42:17;4.60;81.90
18577;DHT22;9418;52.694;13.294;2023-11-21T09:44:48;4.60;85.50
18577;DHT22;9418;52.694;13.294;2023-11-21T09:47:18;4.50;86.70
18577;DHT22;9418;52.694;13.294;2023-11-21T09:49:48;4.60;83.00
18577;DHT22;9418;52.694;13.294;2023-11-21T09:52:21;4.60;82.70
18577;DHT22;9418;52.694;13.294;2023-11-21T09:54:51;4.60;81.10
18577;DHT22;9418;52.694;13.294;2023-11-21T09:57:19;4.60;87.20
18577;DHT22;9418;52.694;13.294;2023-11-21T09:59:46;4.50;99.00
18577;DHT22;9418;52.694;13.294;2023-11-21T10:02:16;4.50;93.50
18577;DHT22;9418;52.694;13.294;2023-11-21T10:04:44;4.60;94.10
18577;DHT22;9418;52.694;13.294;2023-11-21T10:07:12;4.60;91.70
18577;DHT22;9418;52.694;13.294;2023-11-21T10:09:41;4.60;89.40
18577;DHT22;9418;52.694;13.294;2023-11-21T10:12:10;4.70;87.80
18577;DHT22;9418;52.694;13.294;2023-11-21T10:14:40;4.80;86.10
18577;DHT22;9418;52.694;13.294;2023-11-21T10:17:07;4.70;99.20
18577;DHT22;9418;52.694;13.294;2023-11-21T10:19:35;4.70;97.70
18577;DHT22;9418;52.694;13.294;2023-11-21T10:22:02;4.70;99.90
18577;DHT22;9418;52.694;13.294;2023-11-21T10:24:30;4.80;95.80
18577;DHT22;9418;52.694;13.294;2023-11-21T10:26:57;4.90;99.90
18577;DHT22;9418;52.694;13.294;2023-11-21T10:29:23;4.80;99.90
18577;DHT22;9418;52.694;13.294;2023-11-21T10:31:52;4.90;99.90
18577;DHT22;9418;52.694;13.294;2023-11-21T10:34:20;4.90;99.90
18577;DHT22;9418;52.694;13.294;2023-11-21T10:36:47;4.80;99.90
18577;DHT22;9418;52.694;13.294;2023-11-21T10:39:14;4.70;99.90
18577;DHT22;9418;52.694;13.294;2023-11-21T10:41:45;4.70;99.90
18577;DHT22;9418;52.694;13.294;2023-11-21T10:44:14;4.80;99.90
18577;DHT22;9418;52.694;13.294;2023-11-21T10:46:45;4.80;99.90
18577;DHT22;9418;52.694;13.294;2023-11-21T10:49:16;4.70;99.90
18577;DHT22;9418;52.694;13.294;2023-11-21T10:51:44;4.70;99.90
18577;DHT22;9418;52.694;13.294;2023-11-21T10:54:10;4.60;99.90
18577;DHT22;9418;52.694;13.294;2023-11-21T10:56:38;4.70;99.90
18577;DHT22;9418;52.694;13.294;2023-11-21T10:59:08;4.60;99.90
18577;DHT22;9418;52.694;13.294;2023-11-21T11:01:36;4.50;99.90
18577;DHT22;9418;52.694;13.294;2023-11-21T11:04:06;4.60;99.90
18577;DHT22;9418;52.694;13.294;2023-11-21T11:06:40;4.60;99.90
18577;DHT22;9418;52.694;13.294;2023-11-21T11:09:07;4.70;99.90
18577;DHT22;9418;52.694;13.294;2023-11-21T11:11:34;4.70;99.90
18577;DHT22;9418;52.694;13.294;2023-11-21T11:14:04;4.70;99.90
18577;DHT22;9418;52.694;13.294;2023-11-21T11:16:33;4.70;99.90
18577;DHT22;9418;52.694;13.294;2023-11-21T11:19:00;4.60;99.90
18577;DHT22;9418;52.694;13.294;2023-11-21T11:21:33;4.60;99.90
18577;DHT22;9418;52.694;13.294;2023-11-21T11:24:22;4.60;99.90
18577;DHT22;9418;52.694;13.294;2023-11-21T11:26:56;4.60;99.90
18577;DHT22;9418;52.694;13.294;2023-11-21T11:29:32;4.70;99.90
18577;DHT22;9418;52.694;13.294;2023-11-21T11:32:12;4.60;99.90
18577;DHT22;9418;52.694;13.294;2023-11-21T11:34:47;4.60;99.90
18577;DHT22;9418;52.694;13.294;2023-11-21T11:37:16;4.50;99.90
18577;DHT22;9418;52.694;13.294;2023-11-21T11:39:44;4.50;99.90
18577;DHT22;9418;52.694;13.294;2023-11-21T11:42:12;4.60;99.90
18577;DHT22;9418;52.694;13.294;2023-11-21T11:44:50;4.70;99.90
18577;DHT22;9418;52.694;13.294;2023-11-21T11:47:22;4.70;99.90
18577;DHT22;9418;52.694;13.294;2023-11-21T11:50:07;4.80;99.90
18577;DHT22;9418;52.694;13.294;2023-11-21T11:52:39;4.70;99.90
18577;DHT22;9418;52.694;13.294;2023-11-21T11:55:07;4.70;99.90
18577;DHT22;9418;52.694;13.294;2023-11-21T11:57:36;4.60;99.90
18577;DHT22;9418;52.694;13.294;2023-11-21T12:00:08;4.40;99.90
18577;DHT22;9418;52.694;13.294;2023-11-21T12:02:37;4.30;95.20
18577;DHT22;9418;52.694;13.294;2023-11-21T12:05:08;4.30;85.40
18577;DHT22;9418;52.694;13.294;2023-11-21T12:07:46;4.20;83.50
18577;DHT22;9418;52.694;13.294;2023-11-21T12:10:14;4.20;78.60
18577;DHT22;9418;52.694;13.294;2023-11-21T12:12:44;4.10;71.30
18577;DHT22;9418;52.694;13.294;2023-11-21T12:15:11;4.10;74.10
18577;DHT22;9418;52.694;13.294;2023-11-21T12:17:41;4.10;73.30
18577;DHT22;9418;52.694;13.294;2023-11-21T12:20:09;4.20;72.40
18577;DHT22;9418;52.694;13.294;2023-11-21T12:22:42;4.10;79.50
18577;DHT22;9418;52.694;13.294;2023-11-21T12:25:09;4.00;85.10
18577;DHT22;9418;52.694;13.294;2023-11-21T12:27:38;4.00;78.60
18577;DHT22;9418;52.694;13.294;2023-11-21T12:30:05;4.10;77.40
18577;DHT22;9418;52.694;13.294;2023-11-21T12:32:39;3.90;81.10
18577;DHT22;9418;52.694;13.294;2023-11-21T12:35:08;3.90;77.90
18577;DHT22;9418;52.694;13.294;2023-11-21T12:37:35;4.00;78.30
18577;DHT22;9418;52.694;13.294;2023-11-21T12:40:02;4.00;76.90
18577;DHT22;9418;52.694;13.294;2023-11-21T12:42:29;3.90;86.30
18577;DHT22;9418;52.694;13.294;2023-11-21T12:45:10;3.90;85.70
18577;DHT22;9418;52.694;13.294;2023-11-21T12:47:47;3.80;81.80
18577;DHT22;9418;52.694;13.294;2023-11-21T12:50:14;3.80;80.50
18577;DHT22;9418;52.694;13.294;2023-11-21T12:52:42;3.80;84.00
18577;DHT22;9418;52.694;13.294;2023-11-21T12:55:16;3.80;85.80
18577;DHT22;9418;52.694;13.294;2023-11-21T12:57:44;3.80;82.20
18577;DHT22;9418;52.694;13.294;2023-11-21T13:00:13;3.80;85.90
18577;DHT22;9418;52.694;13.294;2023-11-21T13:02:54;3.80;84.80
18577;DHT22;9418;52.694;13.294;2023-11-21T13:05:27;3.70;84.00
18577;DHT22;9418;52.694;13.294;2023-11-21T13:07:57;3.70;88.10
18577;DHT22;9418;52.694;13.294;2023-11-21T13:10:26;3.70;89.10
18577;DHT22;9418;52.694;13.294;2023-11-21T13:12:56;3.70;87.80
18577;DHT22;9418;52.694;13.294;2023-11-21T13:15:25;3.70;86.50
18577;DHT22;9418;52.694;13.294;2023-11-21T13:17:54;3.60;92.20
18577;DHT22;9418;52.694;13.294;2023-11-21T13:20:21;3.60;88.90
18577;DHT22;9418;52.694;13.294;2023-11-21T13:22:50;3.60;82.80
18577;DHT22;9418;52.694;13.294;2023-11-21T13:25:20;3.60;87.70
18577;DHT22;9418;52.694;13.294;2023-11-21T13:27:47;3.60;93.20
18577;DHT22;9418;52.694;13.294;2023-11-21T13:30:14;3.60;94.70
18577;DHT22;9418;52.694;13.294;2023-11-21T13:32:42;3.60;95.80
18577;DHT22;9418;52.694;13.294;2023-11-21T13:35:10;3.50;99.90
18577;DHT22;9418;52.694;13.294;2023-11-21T13:37:47;3.40;99.90
18577;DHT22;9418;52.694;13.294;2023-11-21T13:40:14;3.40;99.90
18577;DHT22;9418;52.694;13.294;2023-11-21T13:42:45;3.40;99.90
18577;DHT22;9418;52.694;13.294;2023-11-21T13:45:12;3.30;99.90
18577;DHT22;9418;52.694;13.294;2023-11-21T13:47:39;3.20;99.90
18577;DHT22;9418;52.694;13.294;2023-11-21T13:50:07;3.30;99.90
18577;DHT22;9418;52.694;13.294;2023-11-21T13:52:43;3.20;99.90
18577;DHT22;9418;52.694;13.294;2023-11-21T13:55:10;3.10;99.90
18577;DHT22;9418;52.694;13.294;2023-11-21T13:57:41;3.00;99.90
18577;DHT22;9418;52.694;13.294;2023-11-21T14:00:09;3.00;99.90
18577;DHT22;9418;52.694;13.294;2023-11-21T14:02:57;3.00;99.90
18577;DHT22;9418;52.694;13.294;2023-11-21T14:05:25;3.00;99.90
18577;DHT22;9418;52.694;13.294;2023-11-21T14:07:56;3.00;99.90
18577;DHT22;9418;52.694;13.294;2023-11-21T14:10:28;3.00;99.90
18577;DHT22;9418;52.694;13.294;2023-11-21T14:13:02;2.90;99.90
18577;DHT22;9418;52.694;13.294;2023-11-21T14:15:30;3.00;99.90
18577;DHT22;9418;52.694;13.294;2023-11-21T14:17:58;3.00;99.90
18577;DHT22;9418;52.694;13.294;2023-11-21T14:20:28;2.90;99.90
18577;DHT22;9418;52.694;13.294;2023-11-21T14:22:56;2.90;99.90
18577;DHT22;9418;52.694;13.294;2023-11-21T14:25:23;3.00;99.90
18577;DHT22;9418;52.694;13.294;2023-11-21T14:27:50;3.00;99.90
18577;DHT22;9418;52.694;13.294;2023-11-21T14:30:17;2.90;99.90
18577;DHT22;9418;52.694;13.294;2023-11-21T14:32:46;3.00;99.90
18577;DHT22;9418;52.694;13.294;2023-11-21T14:35:13;3.00;99.90
18577;DHT22;9418;52.694;13.294;2023-11-21T14:37:39;2.90;99.90
18577;DHT22;9418;52.694;13.294;2023-11-21T14:40:08;3.00;99.90
18577;DHT22;9418;52.694;13.294;2023-11-21T14:42:36;3.00;99.90
18577;DHT22;9418;52.694;13.294;2023-11-21T14:45:06;2.90;99.90
18577;DHT22;9418;52.694;13.294;2023-11-21T14:47:33;2.90;99.90
18577;DHT22;9418;52.694;13.294;2023-11-21T14:50:00;2.90;99.90
18577;DHT22;9418;52.694;13.294;2023-11-21T14:52:44;3.00;99.90
18577;DHT22;9418;52.694;13.294;2023-11-21T14:55:22;3.00;99.90
18577;DHT22;9418;52.694;13.294;2023-11-21T14:57:57;2.90;99.90
18577;DHT22;9418;52.694;13.294;2023-11-21T15:00:23;2.80;99.90
18577;DHT22;9418;52.694;13.294;2023-11-21T15:03:10;2.80;99.90
18577;DHT22;9418;52.694;13.294;2023-11-21T15:05:40;2.70;99.90
18577;DHT22;9418;52.694;13.294;2023-11-21T15:08:07;2.70;99.90
18577;DHT22;9418;52.694;13.294;2023-11-21T15:10:47;2.80;99.90
18577;DHT22;9418;52.694;13.294;2023-11-21T15:13:18;2.70;99.90
18577;DHT22;9418;52.694;13.294;2023-11-21T15:15:44;2.70;99.90
18577;DHT22;9418;52.694;13.294;2023-11-21T15:18:11;2.70;99.90
18577;DHT22;9418;52.694;13.294;2023-11-21T15:20:39;2.60;99.90
18577;DHT22;9418;52.694;13.294;2023-11-21T15:23:06;2.60;99.90
18577;DHT22;9418;52.694;13.294;2023-11-21T15:25:33;2.60;99.90
18577;DHT22;9418;52.694;13.294;2023-11-21T15:28:02;2.60;99.90
18577;DHT22;9418;52.694;13.294;2023-11-21T15:30:30;2.60;99.90
18577;DHT22;9418;52.694;13.294;2023-11-21T15:32:57;2.50;99.90
18577;DHT22;9418;52.694;13.294;2023-11-21T15:35:23;2.50;99.90
18577;DHT22;9418;52.694;13.294;2023-11-21T15:37:52;2.50;99.90
18577;DHT22;9418;52.694;13.294;2023-11-21T15:40:19;2.50;99.90
18577;DHT22;9418;52.694;13.294;2023-11-21T15:42:46;2.50;99.90
18577;DHT22;9418;52.694;13.294;2023-11-21T15:45:15;2.50;99.90
18577;DHT22;9418;52.694;13.294;2023-11-21T15:47:44;2.50;99.90
18577;DHT22;9418;52.694;13.294;2023-11-21T15:50:10;2.50;99.90